sensor_id;sensor_type;location;lat;lon;timestamp;P1;durP1;ratioP1;P2;durP2;ratioP2
3633;SDS011;1833;42.718;23.270;2023-07-20T00:01:51;31.33;;;28.30;;
3633;SDS011;1833;42.718;23.270;2023-07-20T00:04:19;30.83;;;27.93;;
3633;SDS011;1833;42.718;23.270;2023-07-20T00:06:46;30.97;;;28.37;;
3633;SDS011;1833;42.718;23.270;2023-07-20T00:09:13;30.70;;;27.73;;
3633;SDS011;1833;42.718;23.270;2023-07-20T00:11:47;31.03;;;28.07;;
3633;SDS011;1833;42.718;23.270;2023-07-20T00:14:15;30.83;;;28.00;;
3633;SDS011;1833;42.718;23.270;2023-07-20T00:16:44;31.57;;;28.57;;
3633;SDS011;1833;42.718;23.270;2023-07-20T00:19:14;32.07;;;28.53;;
3633;SDS011;1833;42.718;23.270;2023-07-20T00:21:42;32.57;;;28.43;;
3633;SDS011;1833;42.718;23.270;2023-07-20T00:24:09;31.77;;;28.50;;
3633;SDS011;1833;42.718;23.270;2023-07-20T00:26:36;29.67;;;27.10;;
3633;SDS011;1833;42.718;23.270;2023-07-20T00:29:04;31.07;;;27.73;;
3633;SDS011;1833;42.718;23.270;2023-07-20T00:31:31;30.37;;;27.67;;
3633;SDS011;1833;42.718;23.270;2023-07-20T00:34:01;30.37;;;27.50;;
3633;SDS011;1833;42.718;23.270;2023-07-20T00:36:28;31.40;;;28.30;;
3633;SDS011;1833;42.718;23.270;2023-07-20T00:38:56;30.00;;;27.47;;
3633;SDS011;1833;42.718;23.270;2023-07-20T00:41:22;30.30;;;27.80;;
3633;SDS011;1833;42.718;23.270;2023-07-20T00:43:49;31.27;;;28.20;;
3633;SDS011;1833;42.718;23.270;2023-07-20T00:46:17;29.70;;;27.30;;
3633;SDS011;1833;42.718;23.270;2023-07-20T00:48:44;31.00;;;27.17;;
3633;SDS011;1833;42.718;23.270;2023-07-20T00:51:12;30.67;;;27.90;;
3633;SDS011;1833;42.718;23.270;2023-07-20T00:53:40;29.50;;;26.57;;
3633;SDS011;1833;42.718;23.270;2023-07-20T00:56:07;30.33;;;27.67;;
3633;SDS011;1833;42.718;23.270;2023-07-20T00:58:35;29.33;;;26.53;;
3633;SDS011;1833;42.718;23.270;2023-07-20T01:01:02;28.90;;;26.30;;
3633;SDS011;1833;42.718;23.270;2023-07-20T01:03:29;29.77;;;27.40;;
3633;SDS011;1833;42.718;23.270;2023-07-20T01:05:59;29.13;;;26.57;;
3633;SDS011;1833;42.718;23.270;2023-07-20T01:08:32;29.57;;;27.13;;
3633;SDS011;1833;42.718;23.270;2023-07-20T01:11:03;29.40;;;26.70;;
3633;SDS011;1833;42.718;23.270;2023-07-20T01:13:31;31.33;;;27.27;;
3633;SDS011;1833;42.718;23.270;2023-07-20T01:16:00;28.90;;;26.60;;
3633;SDS011;1833;42.718;23.270;2023-07-20T01:18:27;29.20;;;26.83;;
3633;SDS011;1833;42.718;23.270;2023-07-20T01:20:56;29.77;;;27.00;;
3633;SDS011;1833;42.718;23.270;2023-07-20T01:26:11;30.10;;;27.70;;
3633;SDS011;1833;42.718;23.270;2023-07-20T01:28:57;29.83;;;27.03;;
3633;SDS011;1833;42.718;23.270;2023-07-20T01:31:31;29.83;;;27.43;;
3633;SDS011;1833;42.718;23.270;2023-07-20T01:34:00;29.10;;;26.67;;
3633;SDS011;1833;42.718;23.270;2023-07-20T01:36:29;29.20;;;26.90;;
3633;SDS011;1833;42.718;23.270;2023-07-20T01:38:57;30.17;;;27.47;;
3633;SDS011;1833;42.718;23.270;2023-07-20T01:41:24;29.50;;;27.03;;
3633;SDS011;1833;42.718;23.270;2023-07-20T01:43:52;29.83;;;27.13;;
3633;SDS011;1833;42.718;23.270;2023-07-20T01:46:19;29.03;;;26.73;;
3633;SDS011;1833;42.718;23.270;2023-07-20T01:48:47;29.87;;;26.97;;
3633;SDS011;1833;42.718;23.270;2023-07-20T01:51:15;30.23;;;26.90;;
3633;SDS011;1833;42.718;23.270;2023-07-20T01:53:44;28.70;;;26.20;;
3633;SDS011;1833;42.718;23.270;2023-07-20T01:56:11;29.30;;;26.90;;
3633;SDS011;1833;42.718;23.270;2023-07-20T01:58:38;29.83;;;27.23;;
3633;SDS011;1833;42.718;23.270;2023-07-20T02:01:05;29.47;;;27.07;;
3633;SDS011;1833;42.718;23.270;2023-07-20T02:03:33;30.77;;;28.43;;
3633;SDS011;1833;42.718;23.270;2023-07-20T02:06:02;29.43;;;26.63;;
3633;SDS011;1833;42.718;23.270;2023-07-20T02:08:29;29.53;;;26.53;;
3633;SDS011;1833;42.718;23.270;2023-07-20T02:10:56;28.83;;;26.17;;
3633;SDS011;1833;42.718;23.270;2023-07-20T02:13:23;28.40;;;26.03;;
3633;SDS011;1833;42.718;23.270;2023-07-20T02:15:51;29.03;;;26.67;;
3633;SDS011;1833;42.718;23.270;2023-07-20T02:18:18;29.80;;;27.27;;
3633;SDS011;1833;42.718;23.270;2023-07-20T02:20:45;29.50;;;26.70;;
3633;SDS011;1833;42.718;23.270;2023-07-20T02:23:14;29.50;;;26.33;;
3633;SDS011;1833;42.718;23.270;2023-07-20T02:25:41;29.60;;;26.53;;
3633;SDS011;1833;42.718;23.270;2023-07-20T02:28:10;30.20;;;27.40;;
3633;SDS011;1833;42.718;23.270;2023-07-20T02:30:38;29.83;;;26.73;;
3633;SDS011;1833;42.718;23.270;2023-07-20T02:33:06;28.07;;;25.87;;
3633;SDS011;1833;42.718;23.270;2023-07-20T02:35:33;30.63;;;27.50;;
3633;SDS011;1833;42.718;23.270;2023-07-20T02:38:01;28.63;;;26.23;;
3633;SDS011;1833;42.718;23.270;2023-07-20T02:40:29;29.47;;;26.53;;
3633;SDS011;1833;42.718;23.270;2023-07-20T02:42:56;28.50;;;25.63;;
3633;SDS011;1833;42.718;23.270;2023-07-20T02:45:24;29.30;;;26.10;;
3633;SDS011;1833;42.718;23.270;2023-07-20T02:47:51;29.10;;;26.33;;
3633;SDS011;1833;42.718;23.270;2023-07-20T02:50:18;30.03;;;26.83;;
3633;SDS011;1833;42.718;23.270;2023-07-20T02:52:45;29.43;;;26.63;;
3633;SDS011;1833;42.718;23.270;2023-07-20T02:55:13;28.93;;;26.30;;
3633;SDS011;1833;42.718;23.270;2023-07-20T02:57:42;29.80;;;26.77;;
3633;SDS011;1833;42.718;23.270;2023-07-20T03:00:10;29.20;;;26.37;;
3633;SDS011;1833;42.718;23.270;2023-07-20T03:02:41;32.60;;;26.90;;
3633;SDS011;1833;42.718;23.270;2023-07-20T03:05:08;30.30;;;27.47;;
3633;SDS011;1833;42.718;23.270;2023-07-20T03:07:36;29.80;;;26.83;;
3633;SDS011;1833;42.718;23.270;2023-07-20T03:10:03;29.17;;;26.03;;
3633;SDS011;1833;42.718;23.270;2023-07-20T03:12:32;30.80;;;28.03;;
3633;SDS011;1833;42.718;23.270;2023-07-20T03:15:01;33.13;;;26.93;;
3633;SDS011;1833;42.718;23.270;2023-07-20T03:17:29;29.50;;;26.50;;
3633;SDS011;1833;42.718;23.270;2023-07-20T03:19:56;31.57;;;28.40;;
3633;SDS011;1833;42.718;23.270;2023-07-20T03:22:24;30.10;;;27.27;;
3633;SDS011;1833;42.718;23.270;2023-07-20T03:24:52;31.50;;;28.53;;
3633;SDS011;1833;42.718;23.270;2023-07-20T03:27:19;30.07;;;26.97;;
3633;SDS011;1833;42.718;23.270;2023-07-20T03:29:47;31.83;;;26.63;;
3633;SDS011;1833;42.718;23.270;2023-07-20T03:32:15;28.30;;;25.80;;
3633;SDS011;1833;42.718;23.270;2023-07-20T03:34:42;30.57;;;27.33;;
3633;SDS011;1833;42.718;23.270;2023-07-20T03:37:10;30.80;;;28.03;;
3633;SDS011;1833;42.718;23.270;2023-07-20T03:39:38;30.83;;;27.60;;
3633;SDS011;1833;42.718;23.270;2023-07-20T03:42:05;29.03;;;26.50;;
3633;SDS011;1833;42.718;23.270;2023-07-20T03:44:32;29.27;;;26.70;;
3633;SDS011;1833;42.718;23.270;2023-07-20T03:46:59;28.33;;;25.53;;
3633;SDS011;1833;42.718;23.270;2023-07-20T03:49:29;28.77;;;26.07;;
3633;SDS011;1833;42.718;23.270;2023-07-20T03:51:57;31.00;;;25.67;;
3633;SDS011;1833;42.718;23.270;2023-07-20T03:54:24;28.60;;;26.30;;
3633;SDS011;1833;42.718;23.270;2023-07-20T03:56:51;29.13;;;24.93;;
3633;SDS011;1833;42.718;23.270;2023-07-20T03:59:19;28.43;;;25.60;;
3633;SDS011;1833;42.718;23.270;2023-07-20T04:01:47;28.20;;;24.70;;
3633;SDS011;1833;42.718;23.270;2023-07-20T04:04:15;31.00;;;24.77;;
3633;SDS011;1833;42.718;23.270;2023-07-20T04:06:44;32.10;;;26.47;;
3633;SDS011;1833;42.718;23.270;2023-07-20T04:09:11;28.73;;;26.23;;
3633;SDS011;1833;42.718;23.270;2023-07-20T04:11:39;30.10;;;27.10;;
3633;SDS011;1833;42.718;23.270;2023-07-20T04:14:06;28.57;;;25.67;;
3633;SDS011;1833;42.718;23.270;2023-07-20T04:16:33;35.00;;;27.73;;
3633;SDS011;1833;42.718;23.270;2023-07-20T04:19:01;33.57;;;27.73;;
3633;SDS011;1833;42.718;23.270;2023-07-20T04:21:29;30.20;;;27.43;;
3633;SDS011;1833;42.718;23.270;2023-07-20T04:23:58;29.97;;;27.23;;
3633;SDS011;1833;42.718;23.270;2023-07-20T04:26:25;41.17;;;29.10;;
3633;SDS011;1833;42.718;23.270;2023-07-20T04:28:52;35.80;;;28.57;;
3633;SDS011;1833;42.718;23.270;2023-07-20T04:31:19;38.93;;;27.80;;
3633;SDS011;1833;42.718;23.270;2023-07-20T04:33:47;38.67;;;29.40;;
3633;SDS011;1833;42.718;23.270;2023-07-20T04:36:14;32.87;;;29.47;;
3633;SDS011;1833;42.718;23.270;2023-07-20T04:38:44;35.63;;;28.37;;
3633;SDS011;1833;42.718;23.270;2023-07-20T04:41:12;32.07;;;28.87;;
3633;SDS011;1833;42.718;23.270;2023-07-20T04:43:41;32.20;;;29.37;;
3633;SDS011;1833;42.718;23.270;2023-07-20T04:46:08;33.53;;;29.17;;
3633;SDS011;1833;42.718;23.270;2023-07-20T04:48:36;31.20;;;28.38;;
3633;SDS011;1833;42.718;23.270;2023-07-20T04:51:03;33.28;;;30.05;;
3633;SDS011;1833;42.718;23.270;2023-07-20T04:53:31;33.40;;;30.60;;
3633;SDS011;1833;42.718;23.270;2023-07-20T04:55:58;30.05;;;27.25;;
3633;SDS011;1833;42.718;23.270;2023-07-20T04:58:27;33.55;;;30.08;;
3633;SDS011;1833;42.718;23.270;2023-07-20T05:00:54;35.00;;;31.50;;
3633;SDS011;1833;42.718;23.270;2023-07-20T05:03:21;34.22;;;30.33;;
3633;SDS011;1833;42.718;23.270;2023-07-20T05:05:48;33.50;;;30.02;;
3633;SDS011;1833;42.718;23.270;2023-07-20T05:08:16;34.65;;;30.98;;
3633;SDS011;1833;42.718;23.270;2023-07-20T05:10:43;37.92;;;30.27;;
3633;SDS011;1833;42.718;23.270;2023-07-20T05:13:10;33.88;;;30.55;;
3633;SDS011;1833;42.718;23.270;2023-07-20T05:15:39;44.00;;;34.30;;
3633;SDS011;1833;42.718;23.270;2023-07-20T05:18:06;35.78;;;32.28;;
3633;SDS011;1833;42.718;23.270;2023-07-20T05:20:34;35.13;;;31.77;;
3633;SDS011;1833;42.718;23.270;2023-07-20T05:23:02;37.78;;;31.73;;
3633;SDS011;1833;42.718;23.270;2023-07-20T05:25:29;38.08;;;31.50;;
3633;SDS011;1833;42.718;23.270;2023-07-20T05:27:56;39.25;;;34.17;;
3633;SDS011;1833;42.718;23.270;2023-07-20T05:30:25;35.30;;;31.35;;
3633;SDS011;1833;42.718;23.270;2023-07-20T05:32:55;39.65;;;32.30;;
3633;SDS011;1833;42.718;23.270;2023-07-20T05:35:22;36.53;;;32.55;;
3633;SDS011;1833;42.718;23.270;2023-07-20T05:37:50;35.90;;;32.42;;
3633;SDS011;1833;42.718;23.270;2023-07-20T05:40:17;36.47;;;31.15;;
3633;SDS011;1833;42.718;23.270;2023-07-20T05:42:46;35.92;;;31.90;;
3633;SDS011;1833;42.718;23.270;2023-07-20T05:45:14;34.20;;;31.13;;
3633;SDS011;1833;42.718;23.270;2023-07-20T05:47:41;32.95;;;29.42;;
3633;SDS011;1833;42.718;23.270;2023-07-20T05:50:10;33.63;;;30.02;;
3633;SDS011;1833;42.718;23.270;2023-07-20T05:52:37;34.72;;;31.25;;
3633;SDS011;1833;42.718;23.270;2023-07-20T05:55:05;33.42;;;30.15;;
3633;SDS011;1833;42.718;23.270;2023-07-20T05:57:33;34.05;;;30.70;;
3633;SDS011;1833;42.718;23.270;2023-07-20T06:00:00;32.60;;;29.40;;
3633;SDS011;1833;42.718;23.270;2023-07-20T06:02:28;32.90;;;30.13;;
3633;SDS011;1833;42.718;23.270;2023-07-20T06:04:57;35.72;;;31.85;;
3633;SDS011;1833;42.718;23.270;2023-07-20T06:07:26;39.83;;;32.60;;
3633;SDS011;1833;42.718;23.270;2023-07-20T06:09:53;34.10;;;30.55;;
3633;SDS011;1833;42.718;23.270;2023-07-20T06:12:21;33.75;;;30.55;;
3633;SDS011;1833;42.718;23.270;2023-07-20T06:14:48;34.25;;;30.85;;
3633;SDS011;1833;42.718;23.270;2023-07-20T06:17:15;36.53;;;32.70;;
3633;SDS011;1833;42.718;23.270;2023-07-20T06:19:42;35.08;;;31.35;;
3633;SDS011;1833;42.718;23.270;2023-07-20T06:22:10;34.42;;;30.77;;
3633;SDS011;1833;42.718;23.270;2023-07-20T06:24:38;34.50;;;31.17;;
3633;SDS011;1833;42.718;23.270;2023-07-20T06:27:05;35.60;;;31.52;;
3633;SDS011;1833;42.718;23.270;2023-07-20T06:29:33;37.65;;;31.52;;
3633;SDS011;1833;42.718;23.270;2023-07-20T06:32:00;34.65;;;31.15;;
3633;SDS011;1833;42.718;23.270;2023-07-20T06:34:27;33.85;;;30.67;;
3633;SDS011;1833;42.718;23.270;2023-07-20T06:36:55;34.08;;;30.05;;
3633;SDS011;1833;42.718;23.270;2023-07-20T06:39:22;37.17;;;31.63;;
3633;SDS011;1833;42.718;23.270;2023-07-20T06:41:51;32.13;;;29.10;;
3633;SDS011;1833;42.718;23.270;2023-07-20T06:44:18;52.08;;;33.85;;
3633;SDS011;1833;42.718;23.270;2023-07-20T06:46:45;36.92;;;33.30;;
3633;SDS011;1833;42.718;23.270;2023-07-20T06:49:21;35.72;;;30.98;;
3633;SDS011;1833;42.718;23.270;2023-07-20T06:51:50;35.38;;;31.63;;
3633;SDS011;1833;42.718;23.270;2023-07-20T06:54:17;39.03;;;33.47;;
3633;SDS011;1833;42.718;23.270;2023-07-20T06:56:45;37.72;;;32.72;;
3633;SDS011;1833;42.718;23.270;2023-07-20T06:59:13;35.95;;;31.25;;
3633;SDS011;1833;42.718;23.270;2023-07-20T07:04:44;34.63;;;31.10;;
3633;SDS011;1833;42.718;23.270;2023-07-20T07:07:13;35.58;;;31.98;;
3633;SDS011;1833;42.718;23.270;2023-07-20T07:09:40;37.05;;;33.45;;
3633;SDS011;1833;42.718;23.270;2023-07-20T07:12:08;37.17;;;32.10;;
3633;SDS011;1833;42.718;23.270;2023-07-20T07:14:37;33.95;;;30.73;;
3633;SDS011;1833;42.718;23.270;2023-07-20T07:17:04;35.78;;;32.40;;
3633;SDS011;1833;42.718;23.270;2023-07-20T07:19:32;57.30;;;51.78;;
3633;SDS011;1833;42.718;23.270;2023-07-20T07:22:01;38.67;;;34.95;;
3633;SDS011;1833;42.718;23.270;2023-07-20T07:24:29;41.58;;;37.30;;
3633;SDS011;1833;42.718;23.270;2023-07-20T07:26:58;35.55;;;32.22;;
3633;SDS011;1833;42.718;23.270;2023-07-20T07:29:26;35.13;;;31.85;;
3633;SDS011;1833;42.718;23.270;2023-07-20T07:31:54;36.10;;;33.03;;
3633;SDS011;1833;42.718;23.270;2023-07-20T07:34:23;34.80;;;31.70;;
3633;SDS011;1833;42.718;23.270;2023-07-20T07:36:50;45.05;;;36.92;;
3633;SDS011;1833;42.718;23.270;2023-07-20T07:39:18;39.67;;;36.38;;
3633;SDS011;1833;42.718;23.270;2023-07-20T07:41:46;38.10;;;32.83;;
3633;SDS011;1833;42.718;23.270;2023-07-20T07:44:13;32.75;;;29.80;;
3633;SDS011;1833;42.718;23.270;2023-07-20T07:46:40;34.60;;;31.05;;
3633;SDS011;1833;42.718;23.270;2023-07-20T07:49:09;33.65;;;30.80;;
3633;SDS011;1833;42.718;23.270;2023-07-20T07:51:36;34.72;;;31.08;;
3633;SDS011;1833;42.718;23.270;2023-07-20T07:54:04;35.58;;;32.33;;
3633;SDS011;1833;42.718;23.270;2023-07-20T07:56:31;37.13;;;32.83;;
3633;SDS011;1833;42.718;23.270;2023-07-20T07:58:58;35.53;;;31.83;;
3633;SDS011;1833;42.718;23.270;2023-07-20T08:01:25;39.28;;;31.77;;
3633;SDS011;1833;42.718;23.270;2023-07-20T08:03:53;35.97;;;32.15;;
3633;SDS011;1833;42.718;23.270;2023-07-20T08:06:21;35.65;;;31.75;;
3633;SDS011;1833;42.718;23.270;2023-07-20T08:08:49;33.67;;;30.33;;
3633;SDS011;1833;42.718;23.270;2023-07-20T08:11:16;34.00;;;30.83;;
3633;SDS011;1833;42.718;23.270;2023-07-20T08:13:44;35.80;;;32.22;;
3633;SDS011;1833;42.718;23.270;2023-07-20T08:16:11;44.88;;;32.63;;
3633;SDS011;1833;42.718;23.270;2023-07-20T08:18:39;34.72;;;31.58;;
3633;SDS011;1833;42.718;23.270;2023-07-20T08:21:06;32.92;;;29.67;;
3633;SDS011;1833;42.718;23.270;2023-07-20T08:23:35;37.67;;;34.42;;
3633;SDS011;1833;42.718;23.270;2023-07-20T08:26:02;34.70;;;30.60;;
3633;SDS011;1833;42.718;23.270;2023-07-20T08:28:30;33.47;;;29.77;;
3633;SDS011;1833;42.718;23.270;2023-07-20T08:30:57;35.55;;;32.05;;
3633;SDS011;1833;42.718;23.270;2023-07-20T08:33:25;33.70;;;29.98;;
3633;SDS011;1833;42.718;23.270;2023-07-20T08:35:54;35.72;;;29.33;;
3633;SDS011;1833;42.718;23.270;2023-07-20T08:38:22;34.63;;;29.67;;
3633;SDS011;1833;42.718;23.270;2023-07-20T08:40:51;34.50;;;31.30;;
3633;SDS011;1833;42.718;23.270;2023-07-20T08:43:19;37.53;;;33.95;;
3633;SDS011;1833;42.718;23.270;2023-07-20T08:45:48;36.45;;;33.05;;
3633;SDS011;1833;42.718;23.270;2023-07-20T08:48:16;33.80;;;30.60;;
3633;SDS011;1833;42.718;23.270;2023-07-20T08:50:45;34.65;;;30.85;;
3633;SDS011;1833;42.718;23.270;2023-07-20T08:53:12;35.40;;;31.90;;
3633;SDS011;1833;42.718;23.270;2023-07-20T08:55:40;33.65;;;30.55;;
3633;SDS011;1833;42.718;23.270;2023-07-20T08:58:11;34.88;;;31.15;;
3633;SDS011;1833;42.718;23.270;2023-07-20T09:00:39;35.92;;;31.30;;
3633;SDS011;1833;42.718;23.270;2023-07-20T09:03:08;35.25;;;32.17;;
3633;SDS011;1833;42.718;23.270;2023-07-20T09:05:35;35.30;;;31.92;;
3633;SDS011;1833;42.718;23.270;2023-07-20T09:08:04;38.10;;;31.48;;
3633;SDS011;1833;42.718;23.270;2023-07-20T09:10:31;33.03;;;29.90;;
3633;SDS011;1833;42.718;23.270;2023-07-20T09:12:58;35.25;;;31.58;;
3633;SDS011;1833;42.718;23.270;2023-07-20T09:15:28;34.88;;;31.60;;
3633;SDS011;1833;42.718;23.270;2023-07-20T09:17:55;38.55;;;32.00;;
3633;SDS011;1833;42.718;23.270;2023-07-20T09:20:22;35.65;;;32.80;;
3633;SDS011;1833;42.718;23.270;2023-07-20T09:22:50;40.05;;;35.63;;
3633;SDS011;1833;42.718;23.270;2023-07-20T09:25:18;35.78;;;32.60;;
3633;SDS011;1833;42.718;23.270;2023-07-20T09:27:46;35.75;;;32.13;;
3633;SDS011;1833;42.718;23.270;2023-07-20T09:30:14;36.85;;;33.05;;
3633;SDS011;1833;42.718;23.270;2023-07-20T09:32:43;36.58;;;33.17;;
3633;SDS011;1833;42.718;23.270;2023-07-20T09:35:14;34.95;;;31.30;;
3633;SDS011;1833;42.718;23.270;2023-07-20T09:37:45;35.88;;;32.20;;
3633;SDS011;1833;42.718;23.270;2023-07-20T09:40:14;38.05;;;29.95;;
3633;SDS011;1833;42.718;23.270;2023-07-20T09:42:43;33.83;;;30.60;;
3633;SDS011;1833;42.718;23.270;2023-07-20T09:45:10;34.95;;;31.17;;
3633;SDS011;1833;42.718;23.270;2023-07-20T09:47:38;33.53;;;30.13;;
3633;SDS011;1833;42.718;23.270;2023-07-20T09:50:08;34.05;;;30.27;;
3633;SDS011;1833;42.718;23.270;2023-07-20T09:52:40;33.38;;;30.08;;
3633;SDS011;1833;42.718;23.270;2023-07-20T09:55:09;32.45;;;29.05;;
3633;SDS011;1833;42.718;23.270;2023-07-20T09:57:37;34.47;;;31.23;;
3633;SDS011;1833;42.718;23.270;2023-07-20T10:00:05;32.75;;;29.35;;
3633;SDS011;1833;42.718;23.270;2023-07-20T10:02:41;31.83;;;28.77;;
3633;SDS011;1833;42.718;23.270;2023-07-20T10:05:10;33.55;;;30.35;;
3633;SDS011;1833;42.718;23.270;2023-07-20T10:07:39;33.30;;;30.08;;
3633;SDS011;1833;42.718;23.270;2023-07-20T10:10:07;33.53;;;30.02;;
3633;SDS011;1833;42.718;23.270;2023-07-20T10:12:37;31.45;;;28.00;;
3633;SDS011;1833;42.718;23.270;2023-07-20T10:15:07;37.70;;;33.17;;
3633;SDS011;1833;42.718;23.270;2023-07-20T10:17:39;33.58;;;30.17;;
3633;SDS011;1833;42.718;23.270;2023-07-20T10:20:08;43.22;;;31.35;;
3633;SDS011;1833;42.718;23.270;2023-07-20T10:22:38;32.70;;;29.60;;
3633;SDS011;1833;42.718;23.270;2023-07-20T10:25:05;33.35;;;30.02;;
3633;SDS011;1833;42.718;23.270;2023-07-20T10:27:33;32.65;;;29.48;;
3633;SDS011;1833;42.718;23.270;2023-07-20T10:30:01;33.10;;;29.50;;
3633;SDS011;1833;42.718;23.270;2023-07-20T10:32:29;30.60;;;27.50;;
3633;SDS011;1833;42.718;23.270;2023-07-20T10:34:56;32.22;;;29.40;;
3633;SDS011;1833;42.718;23.270;2023-07-20T10:40:28;33.38;;;30.10;;
3633;SDS011;1833;42.718;23.270;2023-07-20T10:42:56;34.03;;;30.40;;
3633;SDS011;1833;42.718;23.270;2023-07-20T10:45:32;33.65;;;30.55;;
3633;SDS011;1833;42.718;23.270;2023-07-20T10:48:02;32.13;;;29.08;;
3633;SDS011;1833;42.718;23.270;2023-07-20T10:50:30;33.83;;;30.58;;
3633;SDS011;1833;42.718;23.270;2023-07-20T10:55:43;39.33;;;31.55;;
3633;SDS011;1833;42.718;23.270;2023-07-20T10:58:11;34.90;;;31.25;;
3633;SDS011;1833;42.718;23.270;2023-07-20T11:00:54;35.90;;;32.45;;
3633;SDS011;1833;42.718;23.270;2023-07-20T11:03:29;37.28;;;34.08;;
3633;SDS011;1833;42.718;23.270;2023-07-20T11:05:57;37.58;;;34.33;;
3633;SDS011;1833;42.718;23.270;2023-07-20T11:08:39;36.70;;;33.78;;
3633;SDS011;1833;42.718;23.270;2023-07-20T11:11:24;37.58;;;33.85;;
3633;SDS011;1833;42.718;23.270;2023-07-20T11:13:55;35.17;;;32.33;;
3633;SDS011;1833;42.718;23.270;2023-07-20T11:16:35;36.80;;;31.92;;
3633;SDS011;1833;42.718;23.270;2023-07-20T11:19:03;34.33;;;31.27;;
3633;SDS011;1833;42.718;23.270;2023-07-20T11:21:30;35.25;;;31.95;;
3633;SDS011;1833;42.718;23.270;2023-07-20T11:24:02;34.33;;;31.15;;
3633;SDS011;1833;42.718;23.270;2023-07-20T11:26:31;35.83;;;32.63;;
3633;SDS011;1833;42.718;23.270;2023-07-20T11:29:06;35.72;;;31.92;;
3633;SDS011;1833;42.718;23.270;2023-07-20T11:31:34;34.05;;;31.20;;
3633;SDS011;1833;42.718;23.270;2023-07-20T11:34:02;35.60;;;32.30;;
3633;SDS011;1833;42.718;23.270;2023-07-20T11:36:29;34.70;;;31.55;;
3633;SDS011;1833;42.718;23.270;2023-07-20T11:38:56;36.90;;;33.50;;
3633;SDS011;1833;42.718;23.270;2023-07-20T11:41:24;35.95;;;32.20;;
3633;SDS011;1833;42.718;23.270;2023-07-20T11:43:53;34.60;;;31.48;;
3633;SDS011;1833;42.718;23.270;2023-07-20T11:46:20;35.47;;;31.77;;
3633;SDS011;1833;42.718;23.270;2023-07-20T11:48:48;35.20;;;32.10;;
3633;SDS011;1833;42.718;23.270;2023-07-20T11:51:15;33.75;;;30.85;;
3633;SDS011;1833;42.718;23.270;2023-07-20T11:53:43;34.60;;;31.33;;
3633;SDS011;1833;42.718;23.270;2023-07-20T11:56:11;34.28;;;31.27;;
3633;SDS011;1833;42.718;23.270;2023-07-20T11:58:41;34.28;;;31.48;;
3633;SDS011;1833;42.718;23.270;2023-07-20T12:01:11;33.92;;;31.00;;
3633;SDS011;1833;42.718;23.270;2023-07-20T12:03:38;33.85;;;30.88;;
3633;SDS011;1833;42.718;23.270;2023-07-20T12:06:06;32.80;;;29.73;;
3633;SDS011;1833;42.718;23.270;2023-07-20T12:08:34;32.38;;;29.73;;
3633;SDS011;1833;42.718;23.270;2023-07-20T12:11:01;36.88;;;33.47;;
3633;SDS011;1833;42.718;23.270;2023-07-20T12:13:38;36.95;;;33.25;;
3633;SDS011;1833;42.718;23.270;2023-07-20T12:16:10;36.47;;;33.28;;
3633;SDS011;1833;42.718;23.270;2023-07-20T12:18:38;36.00;;;31.90;;
3633;SDS011;1833;42.718;23.270;2023-07-20T12:21:05;35.63;;;32.55;;
3633;SDS011;1833;42.718;23.270;2023-07-20T12:23:37;36.13;;;32.95;;
3633;SDS011;1833;42.718;23.270;2023-07-20T12:26:07;34.80;;;31.63;;
3633;SDS011;1833;42.718;23.270;2023-07-20T12:28:35;32.95;;;30.00;;
3633;SDS011;1833;42.718;23.270;2023-07-20T12:31:03;32.95;;;29.95;;
3633;SDS011;1833;42.718;23.270;2023-07-20T12:33:31;32.42;;;29.40;;
3633;SDS011;1833;42.718;23.270;2023-07-20T12:35:59;31.00;;;27.90;;
3633;SDS011;1833;42.718;23.270;2023-07-20T12:38:27;32.97;;;30.10;;
3633;SDS011;1833;42.718;23.270;2023-07-20T12:40:55;32.85;;;29.92;;
3633;SDS011;1833;42.718;23.270;2023-07-20T12:43:23;33.08;;;29.33;;
3633;SDS011;1833;42.718;23.270;2023-07-20T12:45:51;33.30;;;30.50;;
3633;SDS011;1833;42.718;23.270;2023-07-20T12:48:18;32.55;;;29.42;;
3633;SDS011;1833;42.718;23.270;2023-07-20T12:50:46;32.10;;;29.05;;
3633;SDS011;1833;42.718;23.270;2023-07-20T12:53:14;33.30;;;30.15;;
3633;SDS011;1833;42.718;23.270;2023-07-20T12:55:41;33.80;;;30.70;;
3633;SDS011;1833;42.718;23.270;2023-07-20T12:58:08;34.85;;;30.70;;
3633;SDS011;1833;42.718;23.270;2023-07-20T13:00:35;31.67;;;28.55;;
3633;SDS011;1833;42.718;23.270;2023-07-20T13:03:03;31.67;;;28.75;;
3633;SDS011;1833;42.718;23.270;2023-07-20T13:05:32;33.63;;;30.33;;
3633;SDS011;1833;42.718;23.270;2023-07-20T13:08:01;32.47;;;29.45;;
3633;SDS011;1833;42.718;23.270;2023-07-20T13:10:28;34.67;;;31.50;;
3633;SDS011;1833;42.718;23.270;2023-07-20T13:12:56;32.10;;;29.05;;
3633;SDS011;1833;42.718;23.270;2023-07-20T13:15:24;34.40;;;30.83;;
3633;SDS011;1833;42.718;23.270;2023-07-20T13:17:51;34.35;;;30.63;;
3633;SDS011;1833;42.718;23.270;2023-07-20T13:20:18;36.28;;;30.05;;
3633;SDS011;1833;42.718;23.270;2023-07-20T13:22:45;33.90;;;30.77;;
3633;SDS011;1833;42.718;23.270;2023-07-20T13:25:15;32.85;;;30.02;;
3633;SDS011;1833;42.718;23.270;2023-07-20T13:27:42;34.13;;;30.67;;
3633;SDS011;1833;42.718;23.270;2023-07-20T13:30:10;33.75;;;30.58;;
3633;SDS011;1833;42.718;23.270;2023-07-20T13:32:41;36.70;;;32.83;;
3633;SDS011;1833;42.718;23.270;2023-07-20T13:35:08;33.42;;;30.33;;
3633;SDS011;1833;42.718;23.270;2023-07-20T13:37:36;34.03;;;30.90;;
3633;SDS011;1833;42.718;23.270;2023-07-20T13:40:03;36.40;;;32.90;;
3633;SDS011;1833;42.718;23.270;2023-07-20T13:42:32;34.72;;;31.00;;
3633;SDS011;1833;42.718;23.270;2023-07-20T13:44:59;35.15;;;31.63;;
3633;SDS011;1833;42.718;23.270;2023-07-20T13:47:27;34.38;;;31.10;;
3633;SDS011;1833;42.718;23.270;2023-07-20T13:49:54;33.88;;;30.63;;
3633;SDS011;1833;42.718;23.270;2023-07-20T13:52:22;35.47;;;31.90;;
3633;SDS011;1833;42.718;23.270;2023-07-20T13:54:49;40.63;;;36.60;;
3633;SDS011;1833;42.718;23.270;2023-07-20T13:57:16;42.53;;;35.88;;
3633;SDS011;1833;42.718;23.270;2023-07-20T13:59:45;38.67;;;32.90;;
3633;SDS011;1833;42.718;23.270;2023-07-20T14:02:13;31.38;;;28.35;;
3633;SDS011;1833;42.718;23.270;2023-07-20T14:04:41;32.28;;;29.42;;
3633;SDS011;1833;42.718;23.270;2023-07-20T14:07:08;38.97;;;30.98;;
3633;SDS011;1833;42.718;23.270;2023-07-20T14:09:36;32.22;;;28.75;;
3633;SDS011;1833;42.718;23.270;2023-07-20T14:12:04;32.10;;;29.00;;
3633;SDS011;1833;42.718;23.270;2023-07-20T14:14:31;32.15;;;28.73;;
3633;SDS011;1833;42.718;23.270;2023-07-20T14:17:00;31.20;;;28.27;;
3633;SDS011;1833;42.718;23.270;2023-07-20T14:19:27;32.08;;;29.13;;
3633;SDS011;1833;42.718;23.270;2023-07-20T14:21:54;34.05;;;30.35;;
3633;SDS011;1833;42.718;23.270;2023-07-20T14:24:24;34.83;;;31.38;;
3633;SDS011;1833;42.718;23.270;2023-07-20T14:26:51;32.75;;;29.60;;
3633;SDS011;1833;42.718;23.270;2023-07-20T14:29:19;35.67;;;30.45;;
3633;SDS011;1833;42.718;23.270;2023-07-20T14:31:47;34.10;;;29.85;;
3633;SDS011;1833;42.718;23.270;2023-07-20T14:34:17;32.40;;;29.10;;
3633;SDS011;1833;42.718;23.270;2023-07-20T14:36:44;32.20;;;29.27;;
3633;SDS011;1833;42.718;23.270;2023-07-20T14:39:11;34.90;;;31.58;;
3633;SDS011;1833;42.718;23.270;2023-07-20T14:41:38;35.33;;;32.03;;
3633;SDS011;1833;42.718;23.270;2023-07-20T14:44:05;34.95;;;31.05;;
3633;SDS011;1833;42.718;23.270;2023-07-20T14:46:33;36.03;;;32.35;;
3633;SDS011;1833;42.718;23.270;2023-07-20T14:49:00;33.65;;;30.48;;
3633;SDS011;1833;42.718;23.270;2023-07-20T14:51:29;34.55;;;31.42;;